SWA344 KSRQ-KBNA
Flight info
| Callsign | SWA344 |
|---|---|
| Flight time | 1h 39m |
| Altitude | 38000 |
| Route | TIDES1 MOMIE BRUTS Q118 THRSR SWFFT3 |
| Aircraft | B737/M-SDE2E3FGHIRWXY/LB1 |
Departure
| Time | 2026-04-21 23:12 |
|---|---|
| Airport | Sarasota Bradenton International Airport (KSRQ) |
Arrival
| Time | 2026-04-22 00:51 |
|---|---|
| Airport | Nashville International Airport (KBNA) |
| Time | Latitude | Longitude | Altitude | Speed | Heading |
|---|---|---|---|---|---|
| 2026-04-21 22:42 | 27.39031 | -82.55423 | 30 ft | 0 kts | 158° |
| 2026-04-21 23:02 | 27.39034 | -82.55425 | 30 ft | 2 kts | 158° |
| 2026-04-21 23:02 | 27.39051 | -82.55432 | 30 ft | 3 kts | 158° |
| 2026-04-21 23:02 | 27.39069 | -82.55440 | 29 ft | 2 kts | 158° |
| 2026-04-21 23:02 | 27.39084 | -82.55448 | 30 ft | 3 kts | 135° |
| 2026-04-21 23:03 | 27.39093 | -82.55465 | 30 ft | 3 kts | 91° |
| 2026-04-21 23:03 | 27.39092 | -82.55483 | 30 ft | 1 kts | 72° |
| 2026-04-21 23:03 | 27.39091 | -82.55485 | 30 ft | 1 kts | 71° |
| 2026-04-21 23:07 | 27.39098 | -82.55478 | 30 ft | 4 kts | 35° |
| 2026-04-21 23:07 | 27.39147 | -82.55470 | 30 ft | 9 kts | 13° |
| 2026-04-21 23:08 | 27.39210 | -82.55425 | 28 ft | 12 kts | 37° |
| 2026-04-21 23:08 | 27.39258 | -82.55389 | 29 ft | 12 kts | 15° |
| 2026-04-21 23:08 | 27.39329 | -82.55442 | 29 ft | 14 kts | 313° |
| 2026-04-21 23:08 | 27.39400 | -82.55525 | 30 ft | 15 kts | 315° |
| 2026-04-21 23:09 | 27.39481 | -82.55616 | 29 ft | 19 kts | 314° |
| 2026-04-21 23:09 | 27.39583 | -82.55733 | 30 ft | 23 kts | 315° |
| 2026-04-21 23:09 | 27.39703 | -82.55870 | 30 ft | 26 kts | 314° |
| 2026-04-21 23:09 | 27.39834 | -82.56021 | 29 ft | 28 kts | 314° |
| 2026-04-21 23:10 | 27.39973 | -82.56179 | 29 ft | 29 kts | 314° |
| 2026-04-21 23:10 | 27.40110 | -82.56337 | 30 ft | 26 kts | 314° |
| 2026-04-21 23:10 | 27.40232 | -82.56476 | 30 ft | 24 kts | 314° |
| 2026-04-21 23:10 | 27.40329 | -82.56588 | 29 ft | 15 kts | 314° |
| 2026-04-21 23:11 | 27.40415 | -82.56598 | 30 ft | 14 kts | 45° |
| 2026-04-21 23:11 | 27.40426 | -82.56521 | 30 ft | 9 kts | 133° |
| 2026-04-21 23:11 | 27.40351 | -82.56436 | 29 ft | 38 kts | 135° |
| 2026-04-21 23:11 | 27.39991 | -82.56024 | 27 ft | 106 kts | 134° |
| 2026-04-21 23:12 | 27.39345 | -82.55295 | 73 ft | 152 kts | 133° |
| 2026-04-21 23:12 | 27.38590 | -82.54478 | 759 ft | 141 kts | 131° |
| 2026-04-21 23:12 | 27.37906 | -82.53692 | 1403 ft | 144 kts | 128° |
| 2026-04-21 23:12 | 27.37246 | -82.52896 | 2167 ft | 137 kts | 128° |
| 2026-04-21 23:13 | 27.36531 | -82.52034 | 2525 ft | 167 kts | 129° |
| 2026-04-21 23:13 | 27.35677 | -82.51023 | 2857 ft | 195 kts | 129° |
| 2026-04-21 23:13 | 27.34685 | -82.49870 | 3247 ft | 213 kts | 130° |
| 2026-04-21 23:13 | 27.33617 | -82.48664 | 3898 ft | 221 kts | 131° |
| 2026-04-21 23:14 | 27.32517 | -82.47426 | 4772 ft | 223 kts | 131° |
| 2026-04-21 23:14 | 27.31391 | -82.46237 | 5685 ft | 227 kts | 142° |
| 2026-04-21 23:14 | 27.29856 | -82.45646 | 6408 ft | 244 kts | 174° |
| 2026-04-21 23:14 | 27.28194 | -82.46098 | 7268 ft | 254 kts | 210° |
| 2026-04-21 23:15 | 27.26844 | -82.47361 | 8264 ft | 253 kts | 223° |
| 2026-04-21 23:15 | 27.25690 | -82.48855 | 9178 ft | 258 kts | 244° |
| 2026-04-21 23:15 | 27.25175 | -82.50840 | 9768 ft | 278 kts | 260° |
| 2026-04-21 23:15 | 27.24849 | -82.53059 | 10380 ft | 293 kts | 261° |
| 2026-04-21 23:16 | 27.24525 | -82.55344 | 11245 ft | 298 kts | 262° |
| 2026-04-21 23:16 | 27.24601 | -82.57667 | 11707 ft | 299 kts | 288° |
| 2026-04-21 23:16 | 27.25559 | -82.59744 | 11993 ft | 304 kts | 308° |
| 2026-04-21 23:16 | 27.26952 | -82.61534 | 11995 ft | 304 kts | 313° |
| 2026-04-21 23:17 | 27.28393 | -82.63225 | 11994 ft | 303 kts | 314° |
| 2026-04-21 23:17 | 27.29852 | -82.64927 | 12004 ft | 302 kts | 314° |
| 2026-04-21 23:17 | 27.31317 | -82.66658 | 12436 ft | 309 kts | 313° |
| 2026-04-21 23:17 | 27.32786 | -82.68415 | 13474 ft | 308 kts | 313° |
| 2026-04-21 23:18 | 27.34249 | -82.70182 | 14448 ft | 310 kts | 313° |
| 2026-04-21 23:18 | 27.35713 | -82.71960 | 15415 ft | 309 kts | 312° |
| 2026-04-21 23:18 | 27.37175 | -82.73737 | 16423 ft | 308 kts | 312° |
| 2026-04-21 23:18 | 27.38702 | -82.75394 | 17515 ft | 307 kts | 325° |
| 2026-04-21 23:19 | 27.40604 | -82.76488 | 18448 ft | 311 kts | 335° |
| 2026-04-21 23:19 | 27.42638 | -82.77436 | 19124 ft | 319 kts | 336° |
| 2026-04-21 23:19 | 27.44714 | -82.78389 | 19845 ft | 324 kts | 335° |
| 2026-04-21 23:19 | 27.46861 | -82.79248 | 20550 ft | 333 kts | 346° |
| 2026-04-21 23:20 | 27.49220 | -82.79409 | 20862 ft | 357 kts | 358° |
| 2026-04-21 23:20 | 27.51787 | -82.79284 | 21022 ft | 380 kts | 360° |
| 2026-04-21 23:20 | 27.54506 | -82.79132 | 21164 ft | 400 kts | 359° |
| 2026-04-21 23:20 | 27.57341 | -82.79005 | 21436 ft | 414 kts | 359° |
| 2026-04-21 23:21 | 27.60241 | -82.78917 | 21953 ft | 419 kts | 358° |
| 2026-04-21 23:21 | 27.63163 | -82.78890 | 22583 ft | 421 kts | 356° |
| 2026-04-21 23:21 | 27.66102 | -82.78885 | 23200 ft | 424 kts | 356° |
| 2026-04-21 23:21 | 27.69067 | -82.78883 | 23756 ft | 428 kts | 356° |
| 2026-04-21 23:22 | 27.72055 | -82.78876 | 24215 ft | 431 kts | 356° |
| 2026-04-21 23:22 | 27.75063 | -82.78863 | 24722 ft | 433 kts | 356° |
| 2026-04-21 23:22 | 27.78081 | -82.78845 | 25257 ft | 434 kts | 356° |
| 2026-04-21 23:22 | 27.81107 | -82.78825 | 25775 ft | 436 kts | 356° |
| 2026-04-21 23:23 | 27.84148 | -82.78805 | 26274 ft | 438 kts | 356° |
| 2026-04-21 23:23 | 27.87205 | -82.78785 | 26740 ft | 440 kts | 356° |
| 2026-04-21 23:23 | 27.90281 | -82.78766 | 27181 ft | 443 kts | 356° |
| 2026-04-21 23:23 | 27.93376 | -82.78747 | 27623 ft | 446 kts | 356° |
| 2026-04-21 23:24 | 27.96451 | -82.78728 | 28065 ft | 448 kts | 356° |
| 2026-04-21 23:24 | 27.99573 | -82.78708 | 28499 ft | 449 kts | 356° |
| 2026-04-21 23:24 | 28.02710 | -82.78688 | 28923 ft | 452 kts | 356° |
| 2026-04-21 23:24 | 28.05858 | -82.78669 | 29324 ft | 454 kts | 356° |
| 2026-04-21 23:25 | 28.09030 | -82.78649 | 29710 ft | 456 kts | 356° |
| 2026-04-21 23:25 | 28.12208 | -82.78628 | 30107 ft | 458 kts | 356° |
| 2026-04-21 23:25 | 28.15393 | -82.78608 | 30560 ft | 457 kts | 356° |
| 2026-04-21 23:25 | 28.18556 | -82.78586 | 31166 ft | 452 kts | 356° |
| 2026-04-21 23:26 | 28.21688 | -82.78564 | 31789 ft | 447 kts | 356° |
| 2026-04-21 23:26 | 28.24792 | -82.78543 | 32388 ft | 443 kts | 356° |
| 2026-04-21 23:26 | 28.27867 | -82.78524 | 32913 ft | 440 kts | 355° |
| 2026-04-21 23:26 | 28.30918 | -82.78505 | 33407 ft | 438 kts | 355° |
| 2026-04-21 23:27 | 28.33954 | -82.78487 | 33902 ft | 435 kts | 355° |
| 2026-04-21 23:27 | 28.36973 | -82.78468 | 34383 ft | 432 kts | 355° |
| 2026-04-21 23:27 | 28.39974 | -82.78459 | 34723 ft | 431 kts | 353° |
| 2026-04-21 23:27 | 28.42911 | -82.78950 | 34907 ft | 424 kts | 339° |
| 2026-04-21 23:28 | 28.45721 | -82.79961 | 35207 ft | 423 kts | 338° |
| 2026-04-21 23:28 | 28.48526 | -82.80972 | 35575 ft | 422 kts | 338° |
| 2026-04-21 23:28 | 28.51333 | -82.81965 | 35853 ft | 423 kts | 338° |
| 2026-04-21 23:28 | 28.54148 | -82.82942 | 36118 ft | 424 kts | 338° |
| 2026-04-21 23:29 | 28.56968 | -82.83909 | 36423 ft | 423 kts | 338° |
| 2026-04-21 23:29 | 28.59790 | -82.84873 | 36724 ft | 423 kts | 338° |
| 2026-04-21 23:29 | 28.62569 | -82.85824 | 36979 ft | 423 kts | 338° |
| 2026-04-21 23:29 | 28.65393 | -82.86788 | 37247 ft | 423 kts | 339° |
| 2026-04-21 23:30 | 28.68292 | -82.87493 | 37513 ft | 429 kts | 346° |
| 2026-04-21 23:30 | 28.71268 | -82.87917 | 37805 ft | 430 kts | 347° |
| 2026-04-21 23:30 | 28.74251 | -82.88258 | 38054 ft | 431 kts | 348° |
| 2026-04-21 23:30 | 28.77236 | -82.88584 | 38261 ft | 433 kts | 348° |
| 2026-04-21 23:31 | 28.83274 | -82.89290 | 38244 ft | 437 kts | 347° |
| 2026-04-21 23:31 | 28.89259 | -82.90047 | 38228 ft | 431 kts | 347° |
| 2026-04-21 23:32 | 28.95204 | -82.90826 | 38240 ft | 428 kts | 347° |
| 2026-04-21 23:32 | 29.01110 | -82.91607 | 38237 ft | 426 kts | 347° |
| 2026-04-21 23:33 | 29.07001 | -82.92387 | 38269 ft | 425 kts | 347° |
| 2026-04-21 23:33 | 29.12899 | -82.93167 | 38250 ft | 426 kts | 347° |
| 2026-04-21 23:34 | 29.18801 | -82.93948 | 38242 ft | 428 kts | 347° |
| 2026-04-21 23:34 | 29.24686 | -82.94727 | 38243 ft | 429 kts | 347° |
| 2026-04-21 23:35 | 29.30636 | -82.95516 | 38243 ft | 431 kts | 347° |
| 2026-04-21 23:35 | 29.36609 | -82.96308 | 38272 ft | 433 kts | 347° |
| 2026-04-21 23:36 | 29.42608 | -82.97104 | 38248 ft | 434 kts | 347° |
| 2026-04-21 23:36 | 29.48618 | -82.97903 | 38238 ft | 434 kts | 347° |
| 2026-04-21 23:37 | 29.54400 | -82.99510 | 38236 ft | 423 kts | 333° |
| 2026-04-21 23:37 | 29.59820 | -83.02115 | 38237 ft | 422 kts | 332° |
| 2026-04-21 23:38 | 29.65219 | -83.04736 | 38264 ft | 421 kts | 332° |
| 2026-04-21 23:38 | 29.70637 | -83.07336 | 38243 ft | 421 kts | 333° |
| 2026-04-21 23:39 | 29.76053 | -83.09918 | 38238 ft | 421 kts | 333° |
| 2026-04-21 23:39 | 29.81422 | -83.12476 | 38233 ft | 420 kts | 333° |
| 2026-04-21 23:40 | 29.86824 | -83.15053 | 38234 ft | 420 kts | 333° |
| 2026-04-21 23:40 | 29.92219 | -83.17631 | 38239 ft | 419 kts | 333° |
| 2026-04-21 23:41 | 29.97607 | -83.20209 | 38245 ft | 419 kts | 333° |
| 2026-04-21 23:41 | 30.02993 | -83.22789 | 38243 ft | 419 kts | 333° |
| 2026-04-21 23:42 | 30.08378 | -83.25371 | 38246 ft | 419 kts | 333° |
| 2026-04-21 23:42 | 30.13757 | -83.27954 | 38252 ft | 419 kts | 333° |
| 2026-04-21 23:43 | 30.19133 | -83.30538 | 38251 ft | 418 kts | 333° |
| 2026-04-21 23:43 | 30.24478 | -83.33110 | 38274 ft | 419 kts | 332° |
| 2026-04-21 23:44 | 30.29863 | -83.35709 | 38258 ft | 419 kts | 332° |
| 2026-04-21 23:44 | 30.35247 | -83.38313 | 38261 ft | 419 kts | 332° |
| 2026-04-21 23:45 | 30.43328 | -83.42226 | 38258 ft | 420 kts | 332° |
| 2026-04-21 23:46 | 30.48715 | -83.44839 | 38263 ft | 420 kts | 332° |
| 2026-04-21 23:46 | 30.54108 | -83.47457 | 38264 ft | 420 kts | 332° |
| 2026-04-21 23:47 | 30.59504 | -83.50080 | 38270 ft | 420 kts | 332° |
| 2026-04-21 23:47 | 30.64896 | -83.52705 | 38264 ft | 420 kts | 332° |
| 2026-04-21 23:48 | 30.70294 | -83.55335 | 38256 ft | 420 kts | 333° |
| 2026-04-21 23:48 | 30.75649 | -83.57947 | 38264 ft | 420 kts | 333° |
| 2026-04-21 23:49 | 30.81034 | -83.60577 | 38302 ft | 420 kts | 332° |
| 2026-04-21 23:49 | 30.86433 | -83.63219 | 38280 ft | 420 kts | 332° |
| 2026-04-21 23:50 | 30.91834 | -83.65863 | 38262 ft | 421 kts | 332° |
| 2026-04-21 23:50 | 30.97233 | -83.68510 | 38268 ft | 421 kts | 332° |
| 2026-04-21 23:51 | 31.02632 | -83.71161 | 38265 ft | 421 kts | 332° |
| 2026-04-21 23:51 | 31.07998 | -83.73798 | 38265 ft | 421 kts | 332° |
| 2026-04-21 23:52 | 31.13439 | -83.76476 | 38283 ft | 422 kts | 332° |
| 2026-04-21 23:52 | 31.18826 | -83.79130 | 38271 ft | 423 kts | 332° |
| 2026-04-21 23:53 | 31.24255 | -83.81809 | 38272 ft | 424 kts | 332° |
| 2026-04-21 23:53 | 31.26975 | -83.83153 | 38091 ft | 427 kts | 332° |
| 2026-04-21 23:53 | 31.29717 | -83.84508 | 37806 ft | 426 kts | 333° |
| 2026-04-21 23:53 | 31.32443 | -83.85854 | 37541 ft | 424 kts | 333° |
| 2026-04-21 23:54 | 31.35154 | -83.87195 | 37284 ft | 424 kts | 333° |
| 2026-04-21 23:54 | 31.37875 | -83.88542 | 37044 ft | 424 kts | 333° |
| 2026-04-21 23:54 | 31.40592 | -83.89888 | 36795 ft | 423 kts | 333° |
| 2026-04-21 23:54 | 31.43314 | -83.91238 | 36546 ft | 423 kts | 333° |
| 2026-04-21 23:55 | 31.45109 | -83.92129 | 36383 ft | 424 kts | 333° |
| 2026-04-21 23:55 | 31.50560 | -83.94833 | 36279 ft | 426 kts | 334° |
| 2026-04-21 23:56 | 31.57283 | -83.96927 | 36282 ft | 434 kts | 345° |
| 2026-04-21 23:56 | 31.62271 | -83.97988 | 36275 ft | 435 kts | 345° |
| 2026-04-21 23:57 | 31.68231 | -83.99259 | 36291 ft | 435 kts | 345° |
| 2026-04-21 23:57 | 31.74137 | -84.00552 | 36281 ft | 434 kts | 345° |
| 2026-04-21 23:58 | 31.80077 | -84.01871 | 36282 ft | 433 kts | 345° |
| 2026-04-21 23:58 | 31.85997 | -84.03193 | 36287 ft | 433 kts | 345° |
| 2026-04-21 23:59 | 31.91910 | -84.04515 | 36270 ft | 432 kts | 345° |
| 2026-04-21 23:59 | 31.97813 | -84.05836 | 36272 ft | 431 kts | 344° |
| 2026-04-22 00:00 | 32.03708 | -84.07157 | 36255 ft | 430 kts | 344° |
| 2026-04-22 00:00 | 32.09588 | -84.08476 | 36257 ft | 429 kts | 344° |
| 2026-04-22 00:01 | 32.15455 | -84.09793 | 36260 ft | 428 kts | 344° |
| 2026-04-22 00:01 | 32.21308 | -84.11110 | 36278 ft | 428 kts | 343° |
| 2026-04-22 00:02 | 32.27171 | -84.12432 | 36275 ft | 429 kts | 343° |
| 2026-04-22 00:02 | 32.33014 | -84.13751 | 36272 ft | 431 kts | 343° |
| 2026-04-22 00:03 | 32.38929 | -84.15086 | 36284 ft | 433 kts | 343° |
| 2026-04-22 00:03 | 32.44859 | -84.16427 | 36280 ft | 435 kts | 343° |
| 2026-04-22 00:04 | 32.50812 | -84.17774 | 36299 ft | 436 kts | 343° |
| 2026-04-22 00:04 | 32.56766 | -84.19123 | 36285 ft | 436 kts | 343° |
| 2026-04-22 00:05 | 32.62715 | -84.20473 | 36287 ft | 435 kts | 343° |
| 2026-04-22 00:05 | 32.68663 | -84.21825 | 36289 ft | 434 kts | 343° |
| 2026-04-22 00:06 | 32.74555 | -84.23166 | 36303 ft | 433 kts | 343° |
| 2026-04-22 00:06 | 32.80472 | -84.24515 | 36319 ft | 433 kts | 342° |
| 2026-04-22 00:07 | 32.86395 | -84.25867 | 36318 ft | 432 kts | 342° |
| 2026-04-22 00:07 | 32.92305 | -84.27218 | 36316 ft | 432 kts | 342° |
| 2026-04-22 00:08 | 32.98203 | -84.28568 | 36305 ft | 431 kts | 342° |
| 2026-04-22 00:08 | 33.04075 | -84.29913 | 35940 ft | 424 kts | 342° |
| 2026-04-22 00:08 | 33.06959 | -84.30570 | 35543 ft | 419 kts | 342° |
| 2026-04-22 00:09 | 33.09813 | -84.31223 | 35195 ft | 417 kts | 342° |
| 2026-04-22 00:09 | 33.12670 | -84.31882 | 34841 ft | 419 kts | 341° |
| 2026-04-22 00:09 | 33.15499 | -84.32535 | 34500 ft | 420 kts | 341° |
| 2026-04-22 00:09 | 33.18373 | -84.33199 | 34135 ft | 421 kts | 342° |
| 2026-04-22 00:10 | 33.21254 | -84.33864 | 33736 ft | 422 kts | 342° |
| 2026-04-22 00:10 | 33.24142 | -84.34530 | 33349 ft | 422 kts | 342° |
| 2026-04-22 00:10 | 33.27028 | -84.35195 | 32964 ft | 422 kts | 342° |
| 2026-04-22 00:10 | 33.29914 | -84.35860 | 32590 ft | 422 kts | 342° |
| 2026-04-22 00:11 | 33.32800 | -84.36525 | 32211 ft | 422 kts | 342° |
| 2026-04-22 00:11 | 33.35685 | -84.37192 | 31833 ft | 422 kts | 343° |
| 2026-04-22 00:11 | 33.38575 | -84.37859 | 31433 ft | 422 kts | 343° |
| 2026-04-22 00:11 | 33.41464 | -84.38528 | 31076 ft | 422 kts | 343° |
| 2026-04-22 00:12 | 33.44353 | -84.39196 | 30716 ft | 423 kts | 343° |
| 2026-04-22 00:12 | 33.47207 | -84.39858 | 30380 ft | 424 kts | 343° |
| 2026-04-22 00:12 | 33.50104 | -84.40529 | 30328 ft | 425 kts | 343° |
| 2026-04-22 00:13 | 33.55954 | -84.41887 | 30318 ft | 430 kts | 343° |
| 2026-04-22 00:13 | 33.61871 | -84.43262 | 30297 ft | 435 kts | 343° |
| 2026-04-22 00:14 | 33.67589 | -84.45435 | 30297 ft | 430 kts | 333° |
| 2026-04-22 00:14 | 33.73126 | -84.48172 | 30294 ft | 431 kts | 333° |
| 2026-04-22 00:15 | 33.78685 | -84.50862 | 30277 ft | 430 kts | 333° |
| 2026-04-22 00:15 | 33.84206 | -84.53459 | 30296 ft | 427 kts | 334° |
| 2026-04-22 00:16 | 33.89732 | -84.56046 | 30264 ft | 426 kts | 334° |
| 2026-04-22 00:16 | 33.95251 | -84.58636 | 30305 ft | 425 kts | 334° |
| 2026-04-22 00:17 | 34.00673 | -84.61450 | 30305 ft | 422 kts | 329° |
| 2026-04-22 00:17 | 34.05894 | -84.64690 | 30307 ft | 422 kts | 328° |
| 2026-04-22 00:18 | 34.11117 | -84.67969 | 30316 ft | 423 kts | 328° |
| 2026-04-22 00:18 | 34.16360 | -84.71205 | 30282 ft | 423 kts | 328° |
| 2026-04-22 00:19 | 34.21567 | -84.74392 | 30284 ft | 421 kts | 328° |
| 2026-04-22 00:19 | 34.26800 | -84.77595 | 30277 ft | 421 kts | 328° |
| 2026-04-22 00:20 | 34.32028 | -84.80800 | 30274 ft | 421 kts | 328° |
| 2026-04-22 00:20 | 34.37250 | -84.84006 | 30282 ft | 420 kts | 328° |
| 2026-04-22 00:21 | 34.42475 | -84.87221 | 30263 ft | 422 kts | 328° |
| 2026-04-22 00:21 | 34.47716 | -84.90448 | 30271 ft | 423 kts | 328° |
| 2026-04-22 00:22 | 34.52964 | -84.93685 | 30276 ft | 423 kts | 328° |
| 2026-04-22 00:22 | 34.58185 | -84.96909 | 30274 ft | 423 kts | 328° |
| 2026-04-22 00:23 | 34.63438 | -85.00157 | 30299 ft | 423 kts | 328° |
| 2026-04-22 00:23 | 34.68566 | -85.03645 | 30270 ft | 422 kts | 323° |
| 2026-04-22 00:24 | 34.73490 | -85.07541 | 30270 ft | 423 kts | 322° |
| 2026-04-22 00:24 | 34.78423 | -85.11458 | 30273 ft | 424 kts | 322° |
| 2026-04-22 00:25 | 34.83391 | -85.15338 | 30269 ft | 424 kts | 323° |
| 2026-04-22 00:25 | 34.88379 | -85.19210 | 30273 ft | 424 kts | 323° |
| 2026-04-22 00:26 | 34.93320 | -85.23046 | 30272 ft | 423 kts | 323° |
| 2026-04-22 00:26 | 34.98271 | -85.26898 | 29680 ft | 425 kts | 323° |
| 2026-04-22 00:26 | 35.00761 | -85.28839 | 29090 ft | 418 kts | 324° |
| 2026-04-22 00:27 | 35.03223 | -85.30757 | 28150 ft | 418 kts | 324° |
| 2026-04-22 00:27 | 35.05655 | -85.32654 | 27378 ft | 413 kts | 324° |
| 2026-04-22 00:27 | 35.08058 | -85.34531 | 26656 ft | 408 kts | 324° |
| 2026-04-22 00:27 | 35.10436 | -85.36388 | 25930 ft | 404 kts | 324° |
| 2026-04-22 00:28 | 35.12795 | -85.38234 | 25242 ft | 400 kts | 325° |
| 2026-04-22 00:28 | 35.15131 | -85.40064 | 24504 ft | 398 kts | 324° |
| 2026-04-22 00:28 | 35.17258 | -85.42143 | 24130 ft | 386 kts | 314° |
| 2026-04-22 00:28 | 35.19131 | -85.44483 | 23777 ft | 387 kts | 312° |
| 2026-04-22 00:29 | 35.20999 | -85.46927 | 23427 ft | 397 kts | 311° |
| 2026-04-22 00:29 | 35.22887 | -85.49412 | 23078 ft | 400 kts | 311° |
| 2026-04-22 00:29 | 35.24779 | -85.51884 | 22743 ft | 396 kts | 311° |
| 2026-04-22 00:29 | 35.26662 | -85.54323 | 22430 ft | 393 kts | 312° |
| 2026-04-22 00:30 | 35.28541 | -85.56741 | 22125 ft | 391 kts | 312° |
| 2026-04-22 00:30 | 35.30418 | -85.59146 | 21828 ft | 390 kts | 312° |
| 2026-04-22 00:30 | 35.32292 | -85.61543 | 21515 ft | 389 kts | 312° |
| 2026-04-22 00:30 | 35.34163 | -85.63938 | 21210 ft | 389 kts | 312° |
| 2026-04-22 00:31 | 35.36009 | -85.66302 | 20907 ft | 389 kts | 312° |
| 2026-04-22 00:31 | 35.37880 | -85.68698 | 20601 ft | 388 kts | 312° |
| 2026-04-22 00:31 | 35.39747 | -85.71092 | 20288 ft | 388 kts | 312° |
| 2026-04-22 00:31 | 35.41612 | -85.73485 | 19967 ft | 388 kts | 312° |
| 2026-04-22 00:32 | 35.43471 | -85.75871 | 19687 ft | 386 kts | 312° |
| 2026-04-22 00:32 | 35.45325 | -85.78253 | 19377 ft | 385 kts | 312° |
| 2026-04-22 00:32 | 35.47166 | -85.80621 | 19074 ft | 383 kts | 312° |
| 2026-04-22 00:32 | 35.49000 | -85.82981 | 18760 ft | 381 kts | 312° |
| 2026-04-22 00:33 | 35.50838 | -85.85349 | 18247 ft | 382 kts | 312° |
| 2026-04-22 00:33 | 35.52654 | -85.87687 | 17900 ft | 375 kts | 312° |
| 2026-04-22 00:33 | 35.54433 | -85.89980 | 17577 ft | 364 kts | 312° |
| 2026-04-22 00:33 | 35.56141 | -85.92198 | 17279 ft | 351 kts | 311° |
| 2026-04-22 00:34 | 35.57765 | -85.94363 | 17004 ft | 340 kts | 310° |
| 2026-04-22 00:34 | 35.59347 | -85.96490 | 16746 ft | 335 kts | 310° |
| 2026-04-22 00:34 | 35.60918 | -85.98606 | 16494 ft | 336 kts | 310° |
| 2026-04-22 00:34 | 35.62503 | -86.00735 | 16239 ft | 339 kts | 310° |
| 2026-04-22 00:35 | 35.64103 | -86.02883 | 15970 ft | 341 kts | 310° |
| 2026-04-22 00:35 | 35.65704 | -86.05028 | 15691 ft | 339 kts | 310° |
| 2026-04-22 00:35 | 35.67294 | -86.07160 | 15426 ft | 337 kts | 310° |
| 2026-04-22 00:35 | 35.68874 | -86.09278 | 15161 ft | 335 kts | 310° |
| 2026-04-22 00:36 | 35.70446 | -86.11388 | 14914 ft | 333 kts | 311° |
| 2026-04-22 00:36 | 35.71961 | -86.13535 | 14638 ft | 331 kts | 307° |
| 2026-04-22 00:36 | 35.73342 | -86.15784 | 14387 ft | 329 kts | 305° |
| 2026-04-22 00:36 | 35.74679 | -86.18061 | 14118 ft | 327 kts | 304° |
| 2026-04-22 00:37 | 35.76003 | -86.20327 | 13839 ft | 325 kts | 304° |
| 2026-04-22 00:37 | 35.77308 | -86.22547 | 13564 ft | 323 kts | 304° |
| 2026-04-22 00:37 | 35.78628 | -86.24778 | 13299 ft | 322 kts | 304° |
| 2026-04-22 00:37 | 35.79950 | -86.27001 | 13031 ft | 320 kts | 304° |
| 2026-04-22 00:38 | 35.81264 | -86.29203 | 12777 ft | 318 kts | 304° |
| 2026-04-22 00:38 | 35.82571 | -86.31392 | 12527 ft | 316 kts | 304° |
| 2026-04-22 00:38 | 35.83873 | -86.33571 | 12281 ft | 315 kts | 304° |
| 2026-04-22 00:38 | 35.85169 | -86.35739 | 12034 ft | 314 kts | 304° |
| 2026-04-22 00:39 | 35.86461 | -86.37902 | 11748 ft | 313 kts | 304° |
| 2026-04-22 00:39 | 35.87748 | -86.40059 | 11496 ft | 312 kts | 304° |
| 2026-04-22 00:39 | 35.89035 | -86.42217 | 11255 ft | 311 kts | 303° |
| 2026-04-22 00:39 | 35.90317 | -86.44371 | 11020 ft | 311 kts | 303° |
| 2026-04-22 00:40 | 35.91598 | -86.46523 | 10765 ft | 310 kts | 303° |
| 2026-04-22 00:40 | 35.92848 | -86.48620 | 10624 ft | 296 kts | 303° |
| 2026-04-22 00:40 | 35.94039 | -86.50617 | 10524 ft | 281 kts | 303° |
| 2026-04-22 00:40 | 35.95180 | -86.52529 | 10154 ft | 277 kts | 302° |
| 2026-04-22 00:41 | 35.95931 | -86.53790 | 9969 ft | 272 kts | 302° |
| 2026-04-22 00:41 | 35.97040 | -86.55653 | 9703 ft | 267 kts | 302° |
| 2026-04-22 00:41 | 35.98132 | -86.57488 | 9474 ft | 263 kts | 304° |
| 2026-04-22 00:41 | 35.99504 | -86.58947 | 9247 ft | 264 kts | 329° |
| 2026-04-22 00:42 | 36.01269 | -86.59544 | 9051 ft | 266 kts | 351° |
| 2026-04-22 00:42 | 36.03116 | -86.59278 | 8837 ft | 272 kts | 12° |
| 2026-04-22 00:42 | 36.04922 | -86.58560 | 8635 ft | 274 kts | 14° |
| 2026-04-22 00:42 | 36.06737 | -86.57806 | 8413 ft | 273 kts | 14° |
| 2026-04-22 00:43 | 36.08528 | -86.57068 | 8208 ft | 266 kts | 14° |
| 2026-04-22 00:43 | 36.10266 | -86.56362 | 7967 ft | 261 kts | 13° |
| 2026-04-22 00:43 | 36.12014 | -86.55774 | 7647 ft | 260 kts | 9° |
| 2026-04-22 00:43 | 36.13772 | -86.55259 | 7327 ft | 259 kts | 9° |
| 2026-04-22 00:44 | 36.15530 | -86.54759 | 7022 ft | 259 kts | 9° |
| 2026-04-22 00:44 | 36.17262 | -86.54253 | 6727 ft | 259 kts | 10° |
| 2026-04-22 00:44 | 36.19006 | -86.53607 | 6428 ft | 259 kts | 16° |
| 2026-04-22 00:44 | 36.20705 | -86.52872 | 6132 ft | 258 kts | 16° |
| 2026-04-22 00:45 | 36.22369 | -86.52132 | 5893 ft | 254 kts | 17° |
| 2026-04-22 00:45 | 36.24004 | -86.51399 | 5735 ft | 247 kts | 17° |
| 2026-04-22 00:45 | 36.25616 | -86.50671 | 5463 ft | 246 kts | 15° |
| 2026-04-22 00:45 | 36.27298 | -86.50395 | 5154 ft | 238 kts | 345° |
| 2026-04-22 00:46 | 36.28735 | -86.51197 | 4896 ft | 222 kts | 311° |
| 2026-04-22 00:46 | 36.29515 | -86.52740 | 4613 ft | 208 kts | 278° |
| 2026-04-22 00:46 | 36.29653 | -86.54479 | 4359 ft | 205 kts | 271° |
| 2026-04-22 00:46 | 36.29776 | -86.56239 | 4116 ft | 205 kts | 271° |
| 2026-04-22 00:47 | 36.29742 | -86.57979 | 3846 ft | 201 kts | 247° |
| 2026-04-22 00:47 | 36.28852 | -86.59231 | 3709 ft | 198 kts | 211° |
| 2026-04-22 00:47 | 36.27614 | -86.59956 | 3464 ft | 194 kts | 208° |
| 2026-04-22 00:47 | 36.26403 | -86.60623 | 3205 ft | 187 kts | 205° |
| 2026-04-22 00:48 | 36.25208 | -86.61160 | 2971 ft | 178 kts | 202° |
| 2026-04-22 00:48 | 36.24053 | -86.61631 | 2726 ft | 175 kts | 202° |
| 2026-04-22 00:48 | 36.22896 | -86.62096 | 2514 ft | 175 kts | 202° |
| 2026-04-22 00:48 | 36.21746 | -86.62558 | 2276 ft | 173 kts | 201° |
| 2026-04-22 00:49 | 36.20620 | -86.63010 | 2045 ft | 166 kts | 201° |
| 2026-04-22 00:49 | 36.19572 | -86.63431 | 1825 ft | 151 kts | 201° |
| 2026-04-22 00:49 | 36.18644 | -86.63803 | 1661 ft | 133 kts | 202° |
| 2026-04-22 00:49 | 36.17797 | -86.64143 | 1476 ft | 125 kts | 200° |
| 2026-04-22 00:50 | 36.16971 | -86.64476 | 1335 ft | 126 kts | 200° |
| 2026-04-22 00:50 | 36.16113 | -86.64823 | 1156 ft | 133 kts | 200° |
| 2026-04-22 00:50 | 36.15239 | -86.65175 | 953 ft | 134 kts | 199° |
| 2026-04-22 00:50 | 36.14354 | -86.65533 | 802 ft | 135 kts | 200° |
| 2026-04-22 00:51 | 36.13453 | -86.65892 | 616 ft | 136 kts | 199° |
| 2026-04-22 00:51 | 36.12600 | -86.66238 | 569 ft | 112 kts | 197° |
| 2026-04-22 00:51 | 36.12067 | -86.66451 | 575 ft | 48 kts | 198° |
| 2026-04-22 00:51 | 36.11875 | -86.66528 | 579 ft | 13 kts | 198° |
| 2026-04-22 00:52 | 36.11836 | -86.66578 | 580 ft | 9 kts | 263° |
| 2026-04-22 00:52 | 36.11865 | -86.66656 | 579 ft | 11 kts | 326° |
| 2026-04-22 00:52 | 36.11941 | -86.66643 | 580 ft | 11 kts | 17° |
| 2026-04-22 00:52 | 36.12018 | -86.66612 | 578 ft | 13 kts | 18° |
| 2026-04-22 00:53 | 36.12134 | -86.66566 | 570 ft | 21 kts | 17° |
| 2026-04-22 00:53 | 36.12257 | -86.66523 | 568 ft | 13 kts | 356° |
| 2026-04-22 00:53 | 36.12300 | -86.66613 | 568 ft | 14 kts | 285° |
| 2026-04-22 00:53 | 36.12336 | -86.66753 | 573 ft | 18 kts | 288° |
| 2026-04-22 00:54 | 36.12393 | -86.66885 | 572 ft | 17 kts | 313° |
| 2026-04-22 00:54 | 36.12463 | -86.66958 | 571 ft | 10 kts | 352° |
| 2026-04-22 00:54 | 36.12536 | -86.66921 | 575 ft | 14 kts | 30° |
| 2026-04-22 00:54 | 36.12627 | -86.66854 | 570 ft | 16 kts | 30° |
| 2026-04-22 00:55 | 36.12716 | -86.66774 | 569 ft | 16 kts | 39° |
| 2026-04-22 00:55 | 36.12790 | -86.66713 | 566 ft | 8 kts | 53° |
| 2026-04-22 00:55 | 36.12796 | -86.66652 | 569 ft | 0 kts | 91° |